createdAt,value
2023-05-16T00:01:58.783Z,101524.53
2023-05-16T00:04:33.084Z,101530.75
2023-05-16T00:07:06.017Z,101530.81
2023-05-16T00:09:38.488Z,101532.59
2023-05-16T00:12:11.241Z,101536.97
2023-05-16T00:14:43.673Z,101531.69
2023-05-16T00:17:17.559Z,101532.66
2023-05-16T00:19:50.078Z,101529.16
2023-05-16T00:22:23.035Z,101546.72
2023-05-16T00:24:55.421Z,101543.22
2023-05-16T00:27:27.849Z,101538.81
2023-05-16T00:30:01.451Z,101529.13
2023-05-16T00:32:33.985Z,101534.44
2023-05-16T00:35:07.146Z,101537.09
2023-05-16T00:37:40.043Z,101545.03
2023-05-16T00:40:12.850Z,101536.22
2023-05-16T00:42:45.670Z,101536.25
2023-05-16T00:45:18.146Z,101536.25
2023-05-16T00:47:51.784Z,101534.50
2023-05-16T00:50:24.471Z,101535.38
2023-05-16T00:52:57.281Z,101525.72
2023-05-16T00:55:30.111Z,101541.53
2023-05-16T00:58:02.799Z,101532.75
2023-05-16T01:00:36.190Z,101544.16
2023-05-16T01:03:09.937Z,101541.53
2023-05-16T01:05:46.685Z,101545.03
2023-05-16T01:08:19.263Z,101537.13
2023-05-16T01:11:12.450Z,101545.94
2023-05-16T01:13:57.133Z,101548.53
2023-05-16T01:16:54.668Z,101558.22
2023-05-16T01:19:51.451Z,101549.41
2023-05-16T01:22:37.493Z,101554.72
2023-05-16T01:25:22.070Z,101552.94
2023-05-16T01:27:56.375Z,101553.84
2023-05-16T01:30:37.134Z,101552.94
2023-05-16T01:33:10.402Z,101546.69
2023-05-16T01:35:54.429Z,101552.91
2023-05-16T01:38:53.005Z,101545.84
2023-05-16T01:41:33.491Z,101551.13
2023-05-16T01:44:16.508Z,101548.44
2023-05-16T01:46:53.777Z,101554.66
2023-05-16T01:49:39.123Z,101560.78
2023-05-16T01:52:16.393Z,101559.91
2023-05-16T01:54:53.409Z,101559.84
2023-05-16T01:57:28.460Z,101561.59
2023-05-16T02:00:01.023Z,101566.88
2023-05-16T02:02:33.487Z,101566.00
2023-05-16T02:05:06.477Z,101567.75
2023-05-16T02:07:39.189Z,101579.06
2023-05-16T02:10:12.419Z,101576.50
2023-05-16T02:12:44.889Z,101574.72
2023-05-16T02:15:17.455Z,101576.47
2023-05-16T02:17:49.979Z,101571.19
2023-05-16T02:20:22.459Z,101576.47
2023-05-16T02:22:54.941Z,101577.28
2023-05-16T02:25:27.547Z,101583.41
2023-05-16T02:28:00.164Z,101574.66
2023-05-16T02:30:33.062Z,101573.78
2023-05-16T02:33:05.723Z,101582.53
2023-05-16T02:35:38.142Z,101581.59
2023-05-16T02:38:10.568Z,101583.28
2023-05-16T02:40:43.423Z,101579.78
2023-05-16T02:43:16.212Z,101586.81
2023-05-16T02:45:48.694Z,101593.81
2023-05-16T02:48:21.173Z,101591.16
2023-05-16T02:50:53.602Z,101599.16
2023-05-16T02:53:26.223Z,101611.44
2023-05-16T02:55:58.632Z,101604.38
2023-05-16T02:58:31.112Z,101610.56
2023-05-16T03:01:03.651Z,101610.50
2023-05-16T03:03:37.662Z,101608.69
2023-05-16T03:06:10.460Z,101615.69
2023-05-16T03:08:42.991Z,101607.81
2023-05-16T03:11:17.362Z,101627.19
2023-05-16T03:13:49.886Z,101634.16
2023-05-16T03:16:22.307Z,101630.63
2023-05-16T03:18:54.840Z,101630.50
2023-05-16T03:21:27.344Z,101640.97
2023-05-16T03:23:59.855Z,101625.19
2023-05-16T03:26:32.313Z,101631.34
2023-05-16T03:29:04.771Z,101627.66
2023-05-16T03:31:37.336Z,101625.94
2023-05-16T03:34:10.002Z,101625.78
2023-05-16T03:36:42.607Z,101625.88
2023-05-16T03:39:15.913Z,101630.25
2023-05-16T03:41:48.394Z,101634.59
2023-05-16T03:44:20.868Z,101634.66
2023-05-16T03:46:54.222Z,101638.03
2023-05-16T03:49:30.350Z,101640.53
2023-05-16T03:52:04.615Z,101637.03
2023-05-16T03:54:37.110Z,101637.25
2023-05-16T03:57:09.598Z,101646.88
2023-05-16T03:59:42.379Z,101651.13
2023-05-16T04:02:15.828Z,101650.19
2023-05-16T04:04:49.948Z,101652.97
2023-05-16T04:07:23.828Z,101658.16
2023-05-16T04:09:58.733Z,101650.38
2023-05-16T04:12:31.375Z,101654.63
2023-05-16T04:15:04.946Z,101657.44
2023-05-16T04:17:37.528Z,101659.97
2023-05-16T04:20:10.658Z,101667.81
2023-05-16T04:22:43.098Z,101666.13
2023-05-16T04:25:15.594Z,101673.91
2023-05-16T04:27:48.129Z,101664.31
2023-05-16T04:30:20.655Z,101670.47
2023-05-16T04:32:53.301Z,101675.78
2023-05-16T04:35:28.410Z,101681.06
2023-05-16T04:38:01.894Z,101684.78
2023-05-16T04:40:35.219Z,101681.34
2023-05-16T04:43:08.275Z,101684.00
2023-05-16T04:45:42.882Z,101688.34
2023-05-16T04:48:15.398Z,101687.56
2023-05-16T04:50:47.804Z,101693.75
2023-05-16T04:53:20.331Z,101693.81
2023-05-16T04:55:53.013Z,101712.22
2023-05-16T04:58:25.498Z,101702.63
2023-05-16T05:01:01.521Z,101699.84
2023-05-16T05:03:34.340Z,101709.78
2023-05-16T05:06:06.948Z,101717.56
2023-05-16T05:08:39.743Z,101702.78
2023-05-16T05:11:12.192Z,101701.94
2023-05-16T05:13:44.703Z,101703.63
2023-05-16T05:16:17.189Z,101704.56
2023-05-16T05:18:49.815Z,101700.34
2023-05-16T05:21:24.044Z,101710.94
2023-05-16T05:23:56.524Z,101705.69
2023-05-16T05:26:29.035Z,101718.91
2023-05-16T05:29:05.869Z,101719.00
2023-05-16T05:31:38.819Z,101708.50
2023-05-16T05:34:11.304Z,101712.00
2023-05-16T05:36:44.461Z,101714.72
2023-05-16T05:39:16.986Z,101723.47
2023-05-16T05:41:49.489Z,101723.56
2023-05-16T05:44:21.956Z,101730.63
2023-05-16T05:46:55.029Z,101728.88
2023-05-16T05:49:27.976Z,101732.41
2023-05-16T05:52:00.607Z,101731.53
2023-05-16T05:54:33.588Z,101743.03
2023-05-16T05:57:06.227Z,101728.97
2023-05-16T05:59:38.680Z,101743.94
2023-05-16T06:02:11.252Z,101736.91
2023-05-16T06:04:45.276Z,101745.72
2023-05-16T06:07:18.338Z,101747.47
2023-05-16T06:09:50.817Z,101747.47
2023-05-16T06:12:23.211Z,101745.72
2023-05-16T06:14:56.161Z,101751.03
2023-05-16T06:17:28.629Z,101758.97
2023-05-16T06:20:01.250Z,101762.50
2023-05-16T06:22:33.701Z,101775.69
2023-05-16T06:25:06.664Z,101776.56
2023-05-16T06:27:39.126Z,101764.25
2023-05-16T06:30:11.816Z,101763.31
2023-05-16T06:32:44.621Z,101767.72
2023-05-16T06:35:17.230Z,101762.44
2023-05-16T06:37:49.704Z,101763.38
2023-05-16T06:40:22.090Z,101767.75
2023-05-16T06:42:54.619Z,101763.34
2023-05-16T06:45:27.437Z,101764.06
2023-05-16T06:48:00.121Z,101763.22
2023-05-16T06:50:32.685Z,101757.91
2023-05-16T06:53:07.467Z,101767.47
2023-05-16T06:55:40.149Z,101779.91
2023-05-16T06:58:12.606Z,101774.59
2023-05-16T07:00:45.193Z,101765.78
2023-05-16T07:03:17.781Z,101768.44
2023-05-16T07:05:52.838Z,101766.56
2023-05-16T07:08:26.083Z,101773.66
2023-05-16T07:10:58.793Z,101765.72
2023-05-16T07:13:32.459Z,101774.59
2023-05-16T07:16:07.710Z,101782.53
2023-05-16T07:18:40.361Z,101774.38
2023-05-16T07:21:12.849Z,101780.38
2023-05-16T07:23:45.461Z,101783.03
2023-05-16T07:26:18.176Z,101781.41
2023-05-16T07:28:50.976Z,101784.81
2023-05-16T07:31:24.249Z,101787.44
2023-05-16T07:33:57.082Z,101783.84
2023-05-16T07:36:29.553Z,101783.75
2023-05-16T07:39:02.639Z,101788.00
2023-05-16T07:41:35.101Z,101781.50
2023-05-16T07:44:07.666Z,101781.53
2023-05-16T07:46:40.365Z,101786.69
2023-05-16T07:49:13.006Z,101782.00
2023-05-16T07:51:45.605Z,101785.59
2023-05-16T07:54:18.153Z,101794.69
2023-05-16T07:56:50.963Z,101785.78
2023-05-16T07:59:23.489Z,101787.63
2023-05-16T08:01:56.517Z,101790.50
2023-05-16T08:04:29.051Z,101781.13
2023-05-16T08:07:01.673Z,101796.75
2023-05-16T08:09:35.071Z,101793.19
2023-05-16T08:12:08.446Z,101790.97
2023-05-16T08:14:41.089Z,101793.22
2023-05-16T08:17:13.554Z,101805.47
2023-05-16T08:19:48.756Z,101797.28
2023-05-16T08:22:21.264Z,101800.66
2023-05-16T08:24:57.669Z,101799.63
2023-05-16T08:27:30.178Z,101799.38
2023-05-16T08:30:03.055Z,101802.09
2023-05-16T08:32:35.777Z,101794.75
2023-05-16T08:35:08.735Z,101800.22
2023-05-16T08:37:41.304Z,101799.44
2023-05-16T08:40:15.358Z,101789.97
2023-05-16T08:42:48.206Z,101811.63
2023-05-16T08:45:22.713Z,101793.84
2023-05-16T08:47:57.257Z,101787.22
2023-05-16T08:50:31.824Z,101789.69
2023-05-16T08:53:09.609Z,101796.50
2023-05-16T08:55:44.193Z,101784.34
2023-05-16T08:58:17.603Z,101785.91
2023-05-16T09:00:50.185Z,101789.50
2023-05-16T09:03:27.496Z,101772.38
2023-05-16T09:06:00.113Z,101785.09
2023-05-16T09:08:35.791Z,101792.75
2023-05-16T09:11:09.122Z,101788.22
2023-05-16T09:13:41.823Z,101786.66
2023-05-16T09:16:20.047Z,101792.75
2023-05-16T09:19:00.516Z,101798.44
2023-05-16T09:21:35.177Z,101791.16
2023-05-16T09:24:09.413Z,101793.56
2023-05-16T09:26:44.793Z,101786.16
2023-05-16T09:29:17.323Z,101780.38
2023-05-16T09:31:49.943Z,101781.69
2023-05-16T09:34:22.754Z,101783.84
2023-05-16T09:36:55.609Z,101786.84
2023-05-16T09:39:31.072Z,101785.84
2023-05-16T09:42:03.933Z,101779.00
2023-05-16T09:44:37.788Z,101787.84
2023-05-16T09:47:10.420Z,101791.16
2023-05-16T09:49:44.349Z,101790.25
2023-05-16T09:52:16.895Z,101800.84
2023-05-16T09:54:51.254Z,101796.16
2023-05-16T09:57:23.981Z,101794.88
2023-05-16T10:00:05.679Z,101789.84
2023-05-16T10:02:41.796Z,101799.03
2023-05-16T10:05:14.988Z,101789.97
2023-05-16T10:07:47.808Z,101787.81
2023-05-16T10:10:20.914Z,101783.38
2023-05-16T10:12:56.440Z,101791.63
2023-05-16T10:15:30.214Z,101789.38
2023-05-16T10:18:05.350Z,101787.16
2023-05-16T10:20:41.212Z,101786.22
2023-05-16T10:23:17.990Z,101790.41
2023-05-16T10:25:51.729Z,101780.19
2023-05-16T10:28:27.961Z,101794.44
2023-05-16T10:31:02.833Z,101785.56
2023-05-16T10:33:36.517Z,101789.16
2023-05-16T10:36:10.877Z,101783.56
2023-05-16T10:38:45.135Z,101792.44
2023-05-16T10:41:19.208Z,101791.47
2023-05-16T10:43:58.873Z,101781.34
2023-05-16T10:46:31.922Z,101777.66
2023-05-16T10:49:20.982Z,101788.03
2023-05-16T10:52:03.121Z,101777.38
2023-05-16T10:54:36.703Z,101782.41
2023-05-16T10:57:20.891Z,101776.16
2023-05-16T10:59:56.108Z,101789.56
2023-05-16T11:02:40.871Z,101784.34
2023-05-16T11:05:19.135Z,101779.31
2023-05-16T11:08:04.866Z,101754.63
2023-05-16T11:10:37.442Z,101793.00
2023-05-16T11:13:27.149Z,101790.06
2023-05-16T11:16:28.009Z,101781.88
2023-05-16T11:19:07.986Z,101792.00
2023-05-16T11:22:08.713Z,101785.03
2023-05-16T11:24:51.126Z,101777.94
2023-05-16T11:27:27.950Z,101799.13
2023-05-16T11:30:03.930Z,101791.81
2023-05-16T11:32:39.104Z,101786.63
2023-05-16T11:35:15.098Z,101791.69
2023-05-16T11:37:47.845Z,101790.97
2023-05-16T11:40:20.465Z,101807.19
2023-05-16T11:42:53.003Z,101793.41
2023-05-16T11:45:25.696Z,101802.00
2023-05-16T11:48:04.424Z,101804.00
2023-05-16T11:50:37.205Z,101794.22
2023-05-16T11:53:09.801Z,101790.00
2023-05-16T11:55:42.810Z,101793.34
2023-05-16T11:58:16.264Z,101774.72
2023-05-16T12:00:50.592Z,101793.41
2023-05-16T12:03:24.109Z,101789.75
2023-05-16T12:06:00.834Z,101810.50
2023-05-16T12:08:33.584Z,101796.84
2023-05-16T12:11:06.140Z,101804.66
2023-05-16T12:13:38.789Z,101803.25
2023-05-16T12:16:12.955Z,101807.66
2023-05-16T12:18:45.976Z,101807.81
2023-05-16T12:21:18.680Z,101805.00
2023-05-16T12:23:55.562Z,101817.84
2023-05-16T12:26:31.121Z,101814.91
2023-05-16T12:29:05.590Z,101801.81
2023-05-16T12:31:42.009Z,101811.81
2023-05-16T12:34:20.469Z,101815.69
2023-05-16T12:36:54.339Z,101813.41
2023-05-16T12:39:26.954Z,101811.03
2023-05-16T12:42:05.470Z,101816.72
2023-05-16T12:44:38.034Z,101812.84
2023-05-16T12:47:14.524Z,101819.59
2023-05-16T12:49:48.517Z,101815.59
2023-05-16T12:52:21.648Z,101810.41
2023-05-16T12:54:54.138Z,101835.38
2023-05-16T12:57:26.684Z,101821.44
2023-05-16T12:59:59.246Z,101820.72
2023-05-16T13:02:31.775Z,101821.16
2023-05-16T13:05:05.207Z,101836.97
2023-05-16T13:07:40.628Z,101815.25
2023-05-16T13:10:13.329Z,101819.00
2023-05-16T13:12:46.557Z,101818.44
2023-05-16T13:15:19.039Z,101819.53
2023-05-16T13:17:51.596Z,101824.47
2023-05-16T13:20:24.630Z,101826.25
2023-05-16T13:22:57.253Z,101832.78
2023-05-16T13:25:29.983Z,101829.94
2023-05-16T13:28:02.637Z,101829.19
2023-05-16T13:30:35.138Z,101834.94
2023-05-16T13:33:07.744Z,101828.22
2023-05-16T13:35:40.339Z,101834.84
2023-05-16T13:38:12.814Z,101833.38
2023-05-16T13:40:45.746Z,101832.41
2023-05-16T13:43:18.195Z,101826.09
2023-05-16T13:45:53.548Z,101840.09
2023-05-16T13:48:26.377Z,101841.25
2023-05-16T13:50:58.940Z,101836.78
2023-05-16T13:53:31.463Z,101845.19
2023-05-16T13:56:04.185Z,101833.75
2023-05-16T13:58:42.997Z,101838.72
2023-05-16T14:01:25.422Z,101839.16
2023-05-16T14:03:58.470Z,101840.03
2023-05-16T14:06:31.448Z,101842.28
2023-05-16T14:09:04.144Z,101843.31
2023-05-16T14:11:36.567Z,101847.78
2023-05-16T14:14:09.124Z,101848.66
2023-05-16T14:16:45.845Z,101848.81
2023-05-16T14:19:19.545Z,101844.84
2023-05-16T14:21:52.335Z,101847.91
2023-05-16T14:24:24.854Z,101844.94
2023-05-16T14:26:57.401Z,101844.78
2023-05-16T14:29:29.925Z,101844.81
2023-05-16T14:32:02.562Z,101847.78
2023-05-16T14:34:35.021Z,101843.75
2023-05-16T14:37:07.503Z,101845.81
2023-05-16T14:39:39.941Z,101844.59
2023-05-16T14:42:12.826Z,101845.84
2023-05-16T14:44:45.323Z,101851.06
2023-05-16T14:47:17.797Z,101851.31
2023-05-16T14:49:50.380Z,101842.16
2023-05-16T14:52:22.921Z,101848.53
2023-05-16T14:54:55.542Z,101853.59
2023-05-16T14:57:28.082Z,101844.47
2023-05-16T15:00:00.538Z,101853.41
2023-05-16T15:02:35.841Z,101859.16
2023-05-16T15:05:08.937Z,101854.09
2023-05-16T15:07:41.650Z,101857.91
2023-05-16T15:10:14.155Z,101862.19
2023-05-16T15:12:49.426Z,101860.84
2023-05-16T15:15:21.874Z,101859.91
2023-05-16T15:17:54.928Z,101843.25
2023-05-16T15:20:28.019Z,101850.94
2023-05-16T15:23:01.185Z,101845.03
2023-05-16T15:25:33.754Z,101850.13
2023-05-16T15:28:06.266Z,101844.69
2023-05-16T15:30:38.790Z,101846.75
2023-05-16T15:33:11.442Z,101844.16
2023-05-16T15:35:43.978Z,101845.25
2023-05-16T15:38:16.456Z,101847.09
2023-05-16T15:40:52.747Z,101850.38
2023-05-16T15:43:30.497Z,101853.63
2023-05-16T15:46:03.181Z,101852.47
2023-05-16T15:48:36.170Z,101853.25
2023-05-16T15:51:09.448Z,101852.22
2023-05-16T15:53:42.014Z,101862.16
2023-05-16T15:56:14.513Z,101855.56
2023-05-16T15:58:47.020Z,101873.25
2023-05-16T16:01:19.578Z,101873.31
2023-05-16T16:03:52.248Z,101872.25
2023-05-16T16:06:24.985Z,101863.78
2023-05-16T16:08:57.598Z,101871.03
2023-05-16T16:11:31.102Z,101865.72
2023-05-16T16:14:04.284Z,101875.91
2023-05-16T16:16:38.436Z,101878.81
2023-05-16T16:19:11.311Z,101869.97
2023-05-16T16:21:44.080Z,101875.94
2023-05-16T16:24:16.586Z,101867.03
2023-05-16T16:26:49.146Z,101877.69
2023-05-16T16:29:21.676Z,101874.28
2023-05-16T16:31:54.336Z,101863.63
2023-05-16T16:34:26.923Z,101867.25
2023-05-16T16:36:59.414Z,101866.22
2023-05-16T16:39:33.256Z,101875.41
2023-05-16T16:42:06.512Z,101885.47
2023-05-16T16:44:38.964Z,101879.53
2023-05-16T16:47:11.629Z,101888.47
2023-05-16T16:49:45.431Z,101881.44
2023-05-16T16:52:17.979Z,101884.66
2023-05-16T16:54:50.439Z,101889.19
2023-05-16T16:57:23.266Z,101886.25
2023-05-16T16:59:55.837Z,101894.09
2023-05-16T17:02:28.576Z,101886.97
2023-05-16T17:05:01.205Z,101874.59
2023-05-16T17:07:34.023Z,101884.34
2023-05-16T17:10:07.912Z,101908.59
2023-05-16T17:12:46.868Z,101902.16
2023-05-16T17:15:19.372Z,101893.56
2023-05-16T17:17:52.764Z,101898.50
2023-05-16T17:20:25.307Z,101899.22
2023-05-16T17:22:57.789Z,101896.84
2023-05-16T17:25:30.573Z,101896.78
2023-05-16T17:28:03.793Z,101904.28
2023-05-16T17:30:36.536Z,101902.41
2023-05-16T17:33:09.460Z,101913.03
2023-05-16T17:35:42.036Z,101915.03
2023-05-16T17:38:15.015Z,101918.19
2023-05-16T17:40:47.513Z,101922.59
2023-05-16T17:43:19.965Z,101917.63
2023-05-16T17:45:52.524Z,101930.00
2023-05-16T17:48:25.225Z,101923.91
2023-05-16T17:50:57.967Z,101927.25
2023-05-16T17:53:30.662Z,101936.84
2023-05-16T17:56:03.791Z,101929.47
2023-05-16T17:58:37.833Z,101926.47
2023-05-16T18:01:10.379Z,101934.19
2023-05-16T18:03:43.371Z,101928.75
2023-05-16T18:06:15.975Z,101928.69
2023-05-16T18:08:48.424Z,101927.38
2023-05-16T18:11:22.336Z,101925.78
2023-05-16T18:13:55.379Z,101941.78
2023-05-16T18:16:29.650Z,101926.03
2023-05-16T18:19:04.769Z,101929.72
2023-05-16T18:21:38.222Z,101926.56
2023-05-16T18:24:13.062Z,101932.16
2023-05-16T18:26:48.260Z,101932.53
2023-05-16T18:29:21.456Z,101931.44
2023-05-16T18:31:55.180Z,101930.97
2023-05-16T18:34:27.851Z,101934.91
2023-05-16T18:37:00.307Z,101938.63
2023-05-16T18:39:33.034Z,101941.31
2023-05-16T18:42:05.670Z,101936.56
2023-05-16T18:44:38.144Z,101944.28
2023-05-16T18:47:11.060Z,101939.38
2023-05-16T18:49:43.649Z,101947.06
2023-05-16T18:52:16.277Z,101936.25
2023-05-16T18:54:48.803Z,101941.06
2023-05-16T18:57:21.654Z,101944.84
2023-05-16T18:59:55.964Z,101942.09
2023-05-16T19:02:41.029Z,101946.34
2023-05-16T19:05:15.210Z,101951.22
2023-05-16T19:07:50.572Z,101952.88
2023-05-16T19:10:25.161Z,101958.53
2023-05-16T19:12:57.984Z,101962.09
2023-05-16T19:15:30.474Z,101965.75
2023-05-16T19:18:04.838Z,101972.03
2023-05-16T19:20:37.520Z,101975.72
2023-05-16T19:23:10.020Z,101981.25
2023-05-16T19:25:47.390Z,101983.03
2023-05-16T19:28:24.603Z,101988.44
2023-05-16T19:30:57.957Z,101983.19
2023-05-16T19:33:30.476Z,101987.63
2023-05-16T19:36:06.258Z,101986.78
2023-05-16T19:38:38.708Z,101989.50
2023-05-16T19:41:11.241Z,102001.97
2023-05-16T19:43:43.863Z,101996.78
2023-05-16T19:46:16.424Z,102006.50
2023-05-16T19:48:49.313Z,101997.66
2023-05-16T19:54:14.816Z,102004.78
2023-05-16T19:56:47.252Z,102005.66
2023-05-16T19:59:20.528Z,102000.34
2023-05-16T20:01:56.289Z,102003.91
2023-05-16T20:04:28.914Z,102006.56
2023-05-16T20:07:01.524Z,102003.97
2023-05-16T20:09:34.118Z,102016.34
2023-05-16T20:12:07.240Z,102011.00
2023-05-16T20:14:39.905Z,102009.25
2023-05-16T20:17:12.389Z,102016.31
2023-05-16T20:19:45.300Z,102018.09
2023-05-16T20:22:19.137Z,102024.25
2023-05-16T20:24:51.622Z,102023.41
2023-05-16T20:27:24.083Z,102020.78
2023-05-16T20:29:57.086Z,102024.28
2023-05-16T20:32:29.732Z,102026.97
2023-05-16T20:35:04.297Z,102033.09
2023-05-16T20:37:37.166Z,102040.19
2023-05-16T20:40:10.051Z,102041.06
2023-05-16T20:42:42.595Z,102038.41
2023-05-16T20:45:15.126Z,102046.34
2023-05-16T20:47:47.747Z,102033.97
2023-05-16T20:50:20.305Z,102035.78
2023-05-16T20:52:52.946Z,102031.34
2023-05-16T20:55:26.268Z,102041.03
2023-05-16T20:58:00.311Z,102042.81
2023-05-16T21:00:33.657Z,102047.19
2023-05-16T21:03:06.197Z,102050.66
2023-05-16T21:05:39.059Z,102048.91
2023-05-16T21:08:11.807Z,102047.16
2023-05-16T21:10:44.231Z,102051.56
2023-05-16T21:13:16.707Z,102048.84
2023-05-16T21:15:49.384Z,102048.88
2023-05-16T21:18:22.049Z,102057.69
2023-05-16T21:20:54.589Z,102059.47
2023-05-16T21:23:27.253Z,102058.53
2023-05-16T21:25:59.733Z,102057.56
2023-05-16T21:28:34.837Z,102057.59
2023-05-16T21:31:12.356Z,102053.16
2023-05-16T21:33:44.883Z,102052.28
2023-05-16T21:36:18.653Z,102062.81
2023-05-16T21:38:51.127Z,102067.19
2023-05-16T21:41:26.726Z,102061.97
2023-05-16T21:43:59.191Z,102064.59
2023-05-16T21:46:31.782Z,102075.16
2023-05-16T21:49:04.392Z,102070.63
2023-05-16T21:51:40.483Z,102082.06
2023-05-16T21:54:12.942Z,102073.19
2023-05-16T21:56:45.593Z,102077.59
2023-05-16T21:59:18.176Z,102081.22
2023-05-16T22:01:50.590Z,102083.88
2023-05-16T22:04:23.814Z,102080.25
2023-05-16T22:06:56.501Z,102086.34
2023-05-16T22:09:29.025Z,102081.13
2023-05-16T22:12:01.536Z,102083.56
2023-05-16T22:14:34.823Z,102086.34
2023-05-16T22:17:07.385Z,102091.59
2023-05-16T22:19:40.047Z,102087.13
2023-05-16T22:22:13.061Z,102081.84
2023-05-16T22:24:46.132Z,102076.56
2023-05-16T22:27:18.694Z,102080.84
2023-05-16T22:29:53.951Z,102080.91
2023-05-16T22:32:27.581Z,102077.19
2023-05-16T22:35:00.224Z,102084.28
2023-05-16T22:37:32.754Z,102098.34
2023-05-16T22:40:05.739Z,102095.69
2023-05-16T22:42:38.200Z,102097.41
2023-05-16T22:45:10.727Z,102087.75
2023-05-16T22:47:43.434Z,102088.56
2023-05-16T22:50:16.042Z,102100.00
2023-05-16T22:52:48.538Z,102105.31
2023-05-16T22:55:21.002Z,102105.22
2023-05-16T22:57:57.057Z,102088.59
2023-05-16T23:00:29.547Z,102090.31
2023-05-16T23:03:02.261Z,102088.50
2023-05-16T23:05:34.977Z,102086.63
2023-05-16T23:08:07.518Z,102093.75
2023-05-16T23:10:40.037Z,102086.72
2023-05-16T23:13:12.488Z,102094.53
2023-05-16T23:15:45.060Z,102094.56
2023-05-16T23:18:17.773Z,102094.53
2023-05-16T23:20:50.439Z,102100.75
2023-05-16T23:23:23.028Z,102102.47
2023-05-16T23:25:55.682Z,102102.34
2023-05-16T23:28:29.297Z,102101.31
2023-05-16T23:31:02.015Z,102103.25
2023-05-16T23:33:34.553Z,102104.06
2023-05-16T23:36:08.287Z,102102.22
2023-05-16T23:38:40.879Z,102102.16
2023-05-16T23:41:18.847Z,102108.38
2023-05-16T23:43:51.448Z,102103.97
2023-05-16T23:46:23.928Z,102103.97
2023-05-16T23:48:57.444Z,102106.53
2023-05-16T23:51:41.436Z,102111.56
2023-05-16T23:54:22.650Z,102109.78
2023-05-16T23:56:55.210Z,102115.84
2023-05-16T23:59:27.725Z,102121.19
